createdAt,value
2023-03-04T00:02:00.770Z,7.91
2023-03-04T00:04:29.183Z,7.54
2023-03-04T00:06:57.424Z,7.69
2023-03-04T00:09:25.767Z,6.57
2023-03-04T00:11:54.119Z,7.29
2023-03-04T00:14:23.050Z,6.97
2023-03-04T00:16:51.264Z,6.78
2023-03-04T00:19:20.987Z,6.74
2023-03-04T00:21:49.284Z,6.80
2023-03-04T00:24:17.575Z,6.23
2023-03-04T00:26:46.654Z,6.76
2023-03-04T00:29:14.955Z,6.74
2023-03-04T00:31:43.244Z,7.10
2023-03-04T00:34:11.695Z,6.51
2023-03-04T00:36:41.345Z,7.54
2023-03-04T00:39:09.744Z,6.97
2023-03-04T00:41:38.145Z,6.63
2023-03-04T00:44:06.721Z,7.79
2023-03-04T00:46:35.075Z,7.14
2023-03-04T00:49:03.453Z,7.24
2023-03-04T00:51:31.737Z,5.74
2023-03-04T00:54:01.480Z,6.84
2023-03-04T00:56:29.881Z,6.32
2023-03-04T00:58:58.279Z,7.23
2023-03-04T01:01:26.569Z,7.11
2023-03-04T01:03:54.927Z,6.11
2023-03-04T01:06:23.135Z,7.29
2023-03-04T01:08:51.420Z,7.74
2023-03-04T01:11:21.189Z,7.81
2023-03-04T01:13:49.790Z,7.80
2023-03-04T01:16:18.046Z,7.06
2023-03-04T01:18:47.670Z,7.92
2023-03-04T01:21:15.995Z,7.91
2023-03-04T01:23:44.297Z,8.34
2023-03-04T01:26:12.651Z,8.46
2023-03-04T01:28:42.354Z,8.42
2023-03-04T01:31:10.828Z,7.67
2023-03-04T01:33:39.157Z,8.02
2023-03-04T01:36:08.088Z,7.98
2023-03-04T01:38:36.450Z,7.96
2023-03-04T01:41:04.795Z,8.34
2023-03-04T01:43:33.406Z,8.23
2023-03-04T01:46:03.750Z,8.17
2023-03-04T01:48:36.741Z,8.10
2023-03-04T01:51:05.954Z,8.31
2023-03-04T01:53:34.811Z,8.49
2023-03-04T01:56:05.902Z,8.51
2023-03-04T01:58:34.504Z,8.47
2023-03-04T02:01:04.236Z,8.04
2023-03-04T02:03:32.504Z,7.93
2023-03-04T02:06:00.990Z,7.62
2023-03-04T02:08:29.379Z,8.32
2023-03-04T02:10:57.927Z,8.05
2023-03-04T02:13:26.723Z,8.32
2023-03-04T02:15:55.034Z,8.52
2023-03-04T02:18:26.120Z,8.48
2023-03-04T02:21:04.755Z,7.46
2023-03-04T02:23:40.787Z,8.78
2023-03-04T02:26:16.912Z,8.07
2023-03-04T02:28:45.794Z,8.21
2023-03-04T02:31:24.947Z,7.91
2023-03-04T02:33:55.359Z,8.37
2023-03-04T02:36:24.794Z,8.53
2023-03-04T02:38:54.431Z,8.43
2023-03-04T02:41:26.617Z,8.42
2023-03-04T02:43:56.713Z,8.60
2023-03-04T02:46:25.136Z,8.37
2023-03-04T02:48:54.069Z,7.94
2023-03-04T02:51:22.506Z,7.96
2023-03-04T02:53:50.993Z,8.24
2023-03-04T02:56:19.229Z,7.96
2023-03-04T02:58:48.951Z,7.89
2023-03-04T03:01:17.264Z,8.26
2023-03-04T03:03:45.488Z,8.09
2023-03-04T03:06:13.852Z,7.61
2023-03-04T03:08:42.270Z,6.82
2023-03-04T03:11:10.689Z,7.98
2023-03-04T03:13:38.988Z,7.59
2023-03-04T03:16:08.962Z,7.78
2023-03-04T03:18:37.200Z,7.73
2023-03-04T03:21:05.780Z,7.90
2023-03-04T03:23:34.121Z,6.76
2023-03-04T03:26:02.636Z,7.72
2023-03-04T03:28:31.016Z,7.54
2023-03-04T03:31:00.277Z,7.71
2023-03-04T03:33:30.147Z,7.83
2023-03-04T03:35:58.543Z,7.89
2023-03-04T03:38:26.924Z,8.10
2023-03-04T03:40:55.296Z,8.23
2023-03-04T03:43:23.608Z,8.40
2023-03-04T03:45:52.212Z,7.84
2023-03-04T03:48:20.577Z,8.44
2023-03-04T03:50:50.251Z,8.50
2023-03-04T03:53:18.601Z,8.25
2023-03-04T03:55:46.893Z,8.27
2023-03-04T03:58:15.266Z,7.38
2023-03-04T04:00:43.600Z,8.47
2023-03-04T04:03:15.341Z,8.55
2023-03-04T04:05:43.683Z,8.52
2023-03-04T04:08:14.830Z,8.61
2023-03-04T04:10:43.300Z,8.26
2023-03-04T04:13:12.152Z,8.69
2023-03-04T04:15:40.594Z,8.83
2023-03-04T04:18:09.679Z,8.69
2023-03-04T04:20:38.193Z,8.54
2023-03-04T04:23:06.477Z,8.60
2023-03-04T04:25:53.341Z,8.80
2023-03-04T04:28:21.601Z,8.67
2023-03-04T04:30:50.041Z,8.09
2023-03-04T04:33:18.429Z,8.58
2023-03-04T04:35:46.694Z,8.64
2023-03-04T04:38:14.958Z,8.45
2023-03-04T04:40:44.813Z,8.61
2023-03-04T04:43:13.074Z,8.34
2023-03-04T04:45:41.395Z,7.64
2023-03-04T04:48:09.762Z,8.49
2023-03-04T04:50:38.094Z,7.25
2023-03-04T04:53:06.380Z,8.43
2023-03-04T04:55:36.061Z,8.54
2023-03-04T04:58:07.175Z,8.38
2023-03-04T05:00:35.604Z,8.47
2023-03-04T05:03:04.032Z,8.23
2023-03-04T05:05:32.358Z,8.33
2023-03-04T05:08:00.625Z,8.50
2023-03-04T05:10:29.140Z,7.53
2023-03-04T05:12:57.533Z,8.59
2023-03-04T05:15:27.193Z,7.52
2023-03-04T05:17:55.546Z,8.55
2023-03-04T05:20:25.864Z,7.63
2023-03-04T05:22:54.271Z,8.38
2023-03-04T05:25:22.654Z,8.41
2023-03-04T05:27:51.031Z,7.76
2023-03-04T05:30:19.672Z,8.68
2023-03-04T05:32:50.563Z,8.48
2023-03-04T05:35:18.988Z,8.32
2023-03-04T05:37:47.410Z,8.36
2023-03-04T05:40:15.836Z,8.78
2023-03-04T05:42:44.059Z,8.45
2023-03-04T05:45:13.157Z,8.40
2023-03-04T05:47:41.479Z,8.95
2023-03-04T05:50:12.720Z,8.57
2023-03-04T05:52:41.143Z,8.44
2023-03-04T05:55:10.590Z,8.86
2023-03-04T05:57:38.964Z,8.58
2023-03-04T06:00:09.568Z,8.73
2023-03-04T06:02:38.266Z,8.97
2023-03-04T06:05:07.586Z,9.15
2023-03-04T06:07:37.949Z,8.97
2023-03-04T06:10:08.034Z,8.74
2023-03-04T06:12:36.373Z,7.99
2023-03-04T06:15:06.249Z,8.86
2023-03-04T06:17:34.648Z,8.81
2023-03-04T06:20:03.020Z,7.35
2023-03-04T06:22:31.293Z,7.45
2023-03-04T06:25:01.074Z,4.32
2023-03-04T06:27:29.356Z,8.86
2023-03-04T06:29:57.756Z,9.02
2023-03-04T06:32:29.334Z,8.75
2023-03-04T06:34:57.804Z,8.39
2023-03-04T06:37:26.313Z,8.14
2023-03-04T06:39:55.017Z,7.98
2023-03-04T06:42:24.694Z,8.18
2023-03-04T06:44:52.955Z,7.13
2023-03-04T06:47:21.338Z,4.20
2023-03-04T06:49:49.602Z,8.60
2023-03-04T06:52:17.949Z,7.74
2023-03-04T06:54:46.292Z,8.64
2023-03-04T06:57:14.847Z,8.78
2023-03-04T06:59:44.544Z,9.13
2023-03-04T07:02:13.665Z,8.55
2023-03-04T07:04:42.224Z,8.63
2023-03-04T07:07:10.612Z,8.96
2023-03-04T07:09:39.054Z,9.27
2023-03-04T07:12:07.584Z,9.25
2023-03-04T07:14:36.113Z,9.39
2023-03-04T07:17:06.004Z,9.67
2023-03-04T07:19:34.517Z,9.81
2023-03-04T07:22:03.271Z,8.76
2023-03-04T07:24:32.470Z,9.63
2023-03-04T07:27:01.102Z,9.51
2023-03-04T07:29:29.404Z,9.44
2023-03-04T07:31:57.858Z,9.94
2023-03-04T07:34:27.606Z,9.68
2023-03-04T07:36:59.081Z,9.29
2023-03-04T07:39:27.514Z,9.01
2023-03-04T07:41:55.792Z,9.31
2023-03-04T07:44:24.394Z,9.21
2023-03-04T07:46:52.725Z,9.34
2023-03-04T07:49:21.355Z,9.18
2023-03-04T07:51:51.119Z,9.41
2023-03-04T07:54:20.379Z,9.38
2023-03-04T07:56:51.522Z,9.61
2023-03-04T07:59:19.798Z,9.78
2023-03-04T08:01:48.150Z,9.77
2023-03-04T08:04:16.558Z,8.46
2023-03-04T08:06:45.040Z,9.68
2023-03-04T08:09:14.851Z,9.84
2023-03-04T08:11:43.623Z,9.90
2023-03-04T08:14:12.967Z,9.49
2023-03-04T08:16:41.711Z,10.19
2023-03-04T08:19:10.698Z,8.90
2023-03-04T08:21:39.092Z,10.34
2023-03-04T08:24:09.379Z,9.69
2023-03-04T08:26:42.126Z,8.42
2023-03-04T08:29:12.591Z,9.49
2023-03-04T08:31:41.182Z,9.59
2023-03-04T08:34:10.714Z,9.28
2023-03-04T08:36:38.990Z,9.23
2023-03-04T08:39:07.521Z,8.53
2023-03-04T08:41:36.646Z,9.63
2023-03-04T08:44:08.376Z,9.67
2023-03-04T08:46:36.658Z,10.03
2023-03-04T08:49:05.008Z,9.69
2023-03-04T08:51:33.333Z,9.76
2023-03-04T08:54:01.610Z,10.01
2023-03-04T08:56:29.937Z,10.29
2023-03-04T08:58:58.407Z,10.14
2023-03-04T09:01:28.420Z,10.79
2023-03-04T09:03:56.773Z,11.23
2023-03-04T09:06:25.228Z,10.97
2023-03-04T09:08:53.458Z,11.12
2023-03-04T09:11:21.838Z,10.82
2023-03-04T09:13:51.415Z,10.60
2023-03-04T09:16:19.798Z,11.02
2023-03-04T09:18:49.732Z,11.56
2023-03-04T09:21:18.232Z,11.17
2023-03-04T09:23:46.489Z,11.46
2023-03-04T09:26:16.888Z,10.68
2023-03-04T09:28:45.291Z,11.63
2023-03-04T09:31:14.505Z,11.72
2023-03-04T09:33:43.471Z,10.77
2023-03-04T09:36:14.749Z,11.02
2023-03-04T09:38:43.708Z,11.31
2023-03-04T09:41:18.455Z,11.57
2023-03-04T09:43:48.023Z,11.51
2023-03-04T09:46:20.452Z,11.45
2023-03-04T09:48:51.461Z,11.86
2023-03-04T09:51:24.273Z,11.94
2023-03-04T09:54:06.873Z,11.77
2023-03-04T09:56:36.554Z,10.81
2023-03-04T09:59:16.569Z,11.65
2023-03-04T10:01:50.982Z,11.30
2023-03-04T10:04:26.945Z,11.21
2023-03-04T10:06:57.507Z,11.62
2023-03-04T10:09:29.825Z,11.87
2023-03-04T10:12:04.282Z,11.95
2023-03-04T10:14:38.878Z,12.20
2023-03-04T10:17:16.883Z,12.33
2023-03-04T10:19:58.236Z,12.73
2023-03-04T10:22:34.526Z,11.20
2023-03-04T10:25:17.503Z,11.36
2023-03-04T10:27:51.651Z,10.97
2023-03-04T10:30:31.713Z,11.65
2023-03-04T10:33:00.122Z,11.73
2023-03-04T10:35:38.020Z,10.87
2023-03-04T10:38:08.950Z,11.03
2023-03-04T10:40:40.416Z,11.81
2023-03-04T10:43:16.704Z,11.91
2023-03-04T10:45:45.710Z,11.63
2023-03-04T10:48:22.754Z,11.30
2023-03-04T10:50:51.283Z,11.54
2023-03-04T10:53:33.632Z,11.66
2023-03-04T10:56:03.027Z,11.31
2023-03-04T10:58:31.688Z,11.89
2023-03-04T11:01:05.901Z,11.97
2023-03-04T11:03:37.050Z,11.77
2023-03-04T11:06:07.870Z,11.87
2023-03-04T11:08:37.603Z,11.65
2023-03-04T11:11:22.473Z,11.79
2023-03-04T11:13:57.997Z,11.29
2023-03-04T11:16:29.022Z,11.57
2023-03-04T11:19:01.794Z,11.93
2023-03-04T11:21:33.009Z,11.78
2023-03-04T11:24:05.047Z,11.86
2023-03-04T11:26:40.804Z,12.00
2023-03-04T11:29:15.644Z,11.70
2023-03-04T11:31:51.071Z,12.31
2023-03-04T11:34:35.733Z,12.72
2023-03-04T11:37:07.898Z,12.53
2023-03-04T11:39:39.848Z,11.46
2023-03-04T11:42:18.599Z,12.06
2023-03-04T11:44:47.013Z,12.16
2023-03-04T11:47:29.259Z,12.60
2023-03-04T11:50:39.295Z,12.39
2023-03-04T11:53:35.304Z,11.35
2023-03-04T11:56:23.006Z,11.42
2023-03-04T11:59:25.464Z,12.08
2023-03-04T12:02:05.537Z,12.41
2023-03-04T12:04:52.491Z,12.33
2023-03-04T12:07:39.286Z,11.59
2023-03-04T12:10:21.881Z,11.69
2023-03-04T12:13:19.341Z,11.90
2023-03-04T12:15:56.743Z,12.12
2023-03-04T12:18:42.063Z,11.83
2023-03-04T12:21:21.107Z,11.58
2023-03-04T12:24:21.391Z,11.14
2023-03-04T12:26:54.993Z,11.33
2023-03-04T12:29:35.568Z,11.53
2023-03-04T12:32:12.952Z,11.77
2023-03-04T12:34:56.290Z,11.93
2023-03-04T12:37:47.712Z,11.86
2023-03-04T12:40:37.545Z,11.71
2023-03-04T12:43:36.250Z,11.99
2023-03-04T12:46:20.007Z,11.54
2023-03-04T12:48:58.266Z,11.45
2023-03-04T12:51:34.091Z,11.84
2023-03-04T12:54:19.357Z,11.78
2023-03-04T12:56:53.376Z,11.98
2023-03-04T12:59:25.082Z,11.82
2023-03-04T13:02:07.225Z,12.01
2023-03-04T13:04:51.224Z,11.33
2023-03-04T13:07:29.362Z,11.16
2023-03-04T13:10:02.767Z,10.92
2023-03-04T13:12:48.678Z,11.32
2023-03-04T13:15:31.020Z,11.55
2023-03-04T13:18:02.902Z,11.63
2023-03-04T13:20:38.439Z,12.02
2023-03-04T13:23:27.220Z,12.09
2023-03-04T13:26:33.106Z,11.75
2023-03-04T13:29:35.188Z,11.60
2023-03-04T13:32:05.543Z,11.36
2023-03-04T13:34:46.742Z,12.00
2023-03-04T13:37:34.044Z,12.25
2023-03-04T13:40:36.920Z,12.16
2023-03-04T13:43:27.277Z,12.00
2023-03-04T13:45:56.548Z,12.01
2023-03-04T13:48:36.602Z,12.29
2023-03-04T13:51:28.645Z,12.35
2023-03-04T13:54:08.180Z,12.67
2023-03-04T13:56:38.050Z,12.51
2023-03-04T13:59:29.738Z,13.06
2023-03-04T14:02:04.056Z,12.39
2023-03-04T14:04:35.615Z,12.59
2023-03-04T14:07:20.843Z,11.93
2023-03-04T14:09:57.239Z,12.18
2023-03-04T14:12:27.659Z,12.14
2023-03-04T14:14:58.625Z,12.06
2023-03-04T14:17:29.892Z,12.40
2023-03-04T14:19:58.530Z,12.52
2023-03-04T14:22:30.974Z,12.66
2023-03-04T14:25:02.072Z,12.52
2023-03-04T14:27:33.211Z,12.35
2023-03-04T14:30:03.541Z,11.51
2023-03-04T14:32:32.491Z,12.27
2023-03-04T14:35:04.816Z,12.50
2023-03-04T14:37:43.760Z,12.58
2023-03-04T14:40:21.350Z,12.56
2023-03-04T14:42:50.745Z,12.66
2023-03-04T14:45:19.954Z,12.63
2023-03-04T14:47:49.254Z,12.44
2023-03-04T14:50:19.760Z,12.06
2023-03-04T14:52:52.202Z,12.42
2023-03-04T14:55:24.853Z,12.14
2023-03-04T14:57:58.633Z,12.01
2023-03-04T15:00:32.974Z,11.76
2023-03-04T15:03:03.482Z,11.36
2023-03-04T15:05:34.732Z,11.53
2023-03-04T15:08:07.077Z,11.37
2023-03-04T15:10:38.026Z,11.12
2023-03-04T15:13:08.436Z,11.13
2023-03-04T15:15:41.030Z,11.48
2023-03-04T15:18:26.251Z,11.48
2023-03-04T15:20:56.475Z,11.78
2023-03-04T15:23:27.181Z,11.73
2023-03-04T15:25:57.305Z,11.36
2023-03-04T15:28:26.844Z,11.31
2023-03-04T15:30:56.455Z,11.36
2023-03-04T15:33:25.907Z,10.76
2023-03-04T15:35:58.161Z,10.65
2023-03-04T15:38:28.498Z,10.76
2023-03-04T15:40:58.531Z,10.79
2023-03-04T15:43:26.986Z,11.11
2023-03-04T15:45:55.322Z,11.12
2023-03-04T15:48:24.020Z,11.24
2023-03-04T15:50:58.946Z,11.39
2023-03-04T15:53:34.263Z,11.32
2023-03-04T15:56:03.534Z,11.09
2023-03-04T15:58:35.157Z,10.77
2023-03-04T16:01:03.932Z,10.36
2023-03-04T16:03:32.517Z,11.11
2023-03-04T16:06:00.906Z,10.97
2023-03-04T16:08:30.679Z,11.12
2023-03-04T16:10:58.950Z,11.09
2023-03-04T16:13:27.218Z,11.41
2023-03-04T16:15:55.705Z,11.39
2023-03-04T16:18:24.297Z,11.57
2023-03-04T16:20:53.227Z,11.45
2023-03-04T16:23:24.521Z,11.68
2023-03-04T16:25:59.742Z,11.53
2023-03-04T16:28:28.105Z,11.63
2023-03-04T16:30:56.416Z,11.15
2023-03-04T16:33:24.791Z,11.06
2023-03-04T16:35:53.241Z,11.23
2023-03-04T16:38:28.253Z,11.22
2023-03-04T16:40:59.263Z,11.03
2023-03-04T16:43:27.546Z,10.73
2023-03-04T16:45:56.230Z,10.16
2023-03-04T16:48:24.519Z,10.19
2023-03-04T16:50:52.760Z,11.01
2023-03-04T16:53:30.506Z,10.87
2023-03-04T16:56:05.347Z,11.38
2023-03-04T16:58:33.764Z,10.94
2023-03-04T17:01:02.534Z,11.22
2023-03-04T17:03:31.371Z,10.81
2023-03-04T17:05:59.858Z,10.53
2023-03-04T17:08:28.150Z,10.38
2023-03-04T17:10:56.472Z,11.19
2023-03-04T17:13:26.205Z,11.29
2023-03-04T17:15:54.495Z,10.15
2023-03-04T17:18:22.752Z,11.01
2023-03-04T17:20:51.048Z,11.11
2023-03-04T17:23:19.320Z,10.99
2023-03-04T17:25:47.654Z,11.32
2023-03-04T17:28:16.082Z,11.39
2023-03-04T17:30:45.783Z,11.31
2023-03-04T17:33:14.071Z,10.21
2023-03-04T17:35:42.391Z,10.86
2023-03-04T17:38:10.651Z,10.93
2023-03-04T17:40:38.944Z,10.94
2023-03-04T17:43:11.600Z,10.66
2023-03-04T17:45:40.092Z,10.87
2023-03-04T17:48:15.090Z,10.82
2023-03-04T17:50:50.055Z,10.64
2023-03-04T17:53:18.841Z,10.86
2023-03-04T17:55:51.454Z,10.71
2023-03-04T17:58:20.537Z,11.03
2023-03-04T18:00:49.702Z,10.95
2023-03-04T18:03:19.684Z,9.75
2023-03-04T18:05:48.069Z,10.59
2023-03-04T18:08:16.402Z,11.03
2023-03-04T18:10:44.997Z,10.58
2023-03-04T18:13:13.375Z,10.77
2023-03-04T18:15:41.817Z,10.92
2023-03-04T18:18:10.124Z,10.79
2023-03-04T18:20:39.791Z,10.56
2023-03-04T18:23:08.256Z,10.73
2023-03-04T18:25:37.000Z,10.69
2023-03-04T18:28:05.760Z,8.76
2023-03-04T18:30:34.137Z,10.72
2023-03-04T18:33:02.999Z,10.76
2023-03-04T18:35:37.507Z,10.44
2023-03-04T18:38:07.335Z,10.54
2023-03-04T18:40:35.708Z,10.13
2023-03-04T18:43:04.752Z,10.18
2023-03-04T18:45:33.781Z,10.55
2023-03-04T18:48:02.135Z,10.77
2023-03-04T18:50:31.970Z,10.56
2023-03-04T18:53:16.065Z,10.65
2023-03-04T18:55:44.858Z,10.64
2023-03-04T18:58:26.340Z,10.42
2023-03-04T19:00:56.789Z,9.77
2023-03-04T19:03:26.210Z,10.08
2023-03-04T19:05:57.272Z,10.03
2023-03-04T19:08:32.320Z,10.34
2023-03-04T19:11:00.842Z,7.68
2023-03-04T19:13:30.703Z,10.79
2023-03-04T19:15:59.100Z,9.68
2023-03-04T19:18:29.063Z,9.53
2023-03-04T19:21:00.124Z,10.70
2023-03-04T19:23:30.624Z,10.52
2023-03-04T19:25:58.986Z,10.58
2023-03-04T19:28:27.651Z,11.01
2023-03-04T19:30:59.415Z,10.59
2023-03-04T19:33:27.844Z,10.73
2023-03-04T19:35:56.607Z,10.98
2023-03-04T19:38:25.105Z,10.88
2023-03-04T19:40:54.784Z,10.46
2023-03-04T19:43:23.280Z,10.70
2023-03-04T19:45:55.803Z,10.48
2023-03-04T19:48:24.574Z,10.20
2023-03-04T19:50:52.896Z,9.97
2023-03-04T19:53:21.406Z,10.22
2023-03-04T19:55:50.639Z,9.99
2023-03-04T19:58:20.793Z,10.55
2023-03-04T20:00:50.272Z,10.39
2023-03-04T20:03:18.671Z,10.06
2023-03-04T20:05:47.672Z,9.67
2023-03-04T20:08:16.000Z,10.37
2023-03-04T20:10:44.347Z,10.48
2023-03-04T20:13:12.642Z,10.47
2023-03-04T20:15:45.182Z,10.04
2023-03-04T20:18:13.525Z,10.26
2023-03-04T20:20:41.844Z,10.26
2023-03-04T20:23:10.613Z,10.43
2023-03-04T20:25:39.544Z,10.50
2023-03-04T20:28:10.534Z,10.34
2023-03-04T20:30:39.415Z,10.04
2023-03-04T20:33:09.114Z,9.85
2023-03-04T20:35:40.135Z,9.68
2023-03-04T20:38:08.585Z,10.10
2023-03-04T20:40:37.688Z,10.24
2023-03-04T20:43:07.001Z,10.11
2023-03-04T20:45:36.389Z,10.41
2023-03-04T20:48:05.547Z,9.62
2023-03-04T20:50:35.286Z,10.13
2023-03-04T20:53:03.849Z,9.85
2023-03-04T20:55:32.076Z,10.05
2023-03-04T20:58:00.442Z,10.31
2023-03-04T21:00:30.722Z,10.28
2023-03-04T21:02:59.095Z,10.33
2023-03-04T21:05:27.335Z,10.48
2023-03-04T21:07:57.188Z,9.81
2023-03-04T21:10:25.432Z,10.08
2023-03-04T21:12:53.756Z,10.02
2023-03-04T21:15:22.917Z,9.29
2023-03-04T21:17:51.234Z,10.18
2023-03-04T21:20:19.601Z,9.91
2023-03-04T21:22:47.914Z,9.87
2023-03-04T21:25:19.208Z,10.35
2023-03-04T21:27:47.434Z,9.96
2023-03-04T21:30:15.967Z,9.69
2023-03-04T21:32:44.336Z,9.71
2023-03-04T21:35:15.327Z,8.97
2023-03-04T21:37:43.542Z,9.09
2023-03-04T21:40:13.484Z,9.42
2023-03-04T21:42:43.201Z,9.52
2023-03-04T21:45:12.210Z,9.86
2023-03-04T21:47:40.896Z,9.77
2023-03-04T21:50:10.234Z,9.99
2023-03-04T21:52:40.988Z,9.63
2023-03-04T21:55:10.066Z,10.04
2023-03-04T21:57:38.319Z,9.79
2023-03-04T22:00:09.692Z,9.30
2023-03-04T22:02:38.235Z,9.98
2023-03-04T22:05:07.023Z,9.18
2023-03-04T22:07:36.237Z,9.17
2023-03-04T22:10:07.523Z,10.12
2023-03-04T22:12:35.782Z,10.20
2023-03-04T22:15:04.194Z,9.92
2023-03-04T22:17:35.285Z,10.04
2023-03-04T22:20:03.816Z,9.83
2023-03-04T22:22:32.178Z,8.95
2023-03-04T22:25:00.703Z,8.91
2023-03-04T22:27:29.069Z,9.84
2023-03-04T22:29:57.827Z,9.67
2023-03-04T22:32:26.328Z,9.57
2023-03-04T22:34:56.075Z,9.33
2023-03-04T22:37:24.369Z,9.36
2023-03-04T22:39:52.767Z,9.32
2023-03-04T22:42:21.106Z,9.30
2023-03-04T22:44:49.481Z,9.36
2023-03-04T22:47:17.821Z,8.50
2023-03-04T22:49:47.604Z,9.57
2023-03-04T22:52:17.326Z,9.97
2023-03-04T22:54:45.694Z,9.26
2023-03-04T22:57:13.941Z,9.48
2023-03-04T22:59:42.229Z,9.71
2023-03-04T23:02:10.632Z,9.50
2023-03-04T23:04:38.884Z,9.63
2023-03-04T23:07:07.170Z,9.28
2023-03-04T23:09:36.926Z,8.99
2023-03-04T23:12:05.775Z,8.80
2023-03-04T23:14:34.119Z,9.37
2023-03-04T23:17:02.671Z,9.25
2023-03-04T23:19:30.972Z,9.30
2023-03-04T23:21:59.389Z,9.20
2023-03-04T23:24:28.253Z,9.16
2023-03-04T23:26:57.970Z,9.26
2023-03-04T23:29:26.256Z,9.81
2023-03-04T23:31:54.602Z,9.03
2023-03-04T23:34:23.070Z,9.76
2023-03-04T23:36:51.360Z,9.92
2023-03-04T23:39:20.147Z,9.77
2023-03-04T23:41:48.500Z,8.87
2023-03-04T23:44:18.194Z,9.82
2023-03-04T23:46:46.610Z,9.66
2023-03-04T23:49:17.195Z,9.06
2023-03-04T23:51:45.794Z,9.97
2023-03-04T23:54:14.912Z,10.11
2023-03-04T23:56:43.269Z,9.93
2023-03-04T23:59:12.416Z,9.46
